sensor_id;sensor_type;location;lat;lon;timestamp;pressure;altitude;pressure_sealevel;temperature;humidity
28510;BME280;15723;55.684;37.928;2023-05-24T00:01:54;100064.53;;;20.64;nan
28510;BME280;15723;55.684;37.928;2023-05-24T00:04:22;100068.69;;;20.85;nan
28510;BME280;15723;55.684;37.928;2023-05-24T00:06:55;100063.22;;;20.50;nan
28510;BME280;15723;55.684;37.928;2023-05-24T00:09:21;100065.69;;;20.79;nan
28510;BME280;15723;55.684;37.928;2023-05-24T00:11:47;100063.09;;;20.77;nan
28510;BME280;15723;55.684;37.928;2023-05-24T00:14:14;100060.31;;;20.95;nan
28510;BME280;15723;55.684;37.928;2023-05-24T00:16:40;100057.41;;;20.79;nan
28510;BME280;15723;55.684;37.928;2023-05-24T00:19:07;100057.88;;;20.48;nan
28510;BME280;15723;55.684;37.928;2023-05-24T00:21:36;100051.53;;;20.74;nan
28510;BME280;15723;55.684;37.928;2023-05-24T00:24:02;100056.22;;;20.55;nan
28510;BME280;15723;55.684;37.928;2023-05-24T00:26:28;100045.13;;;20.47;nan
28510;BME280;15723;55.684;37.928;2023-05-24T00:28:56;100046.88;;;20.21;nan
28510;BME280;15723;55.684;37.928;2023-05-24T00:31:23;100038.41;;;20.50;nan
28510;BME280;15723;55.684;37.928;2023-05-24T00:33:49;100039.00;;;20.26;nan
28510;BME280;15723;55.684;37.928;2023-05-24T00:36:18;100031.16;;;20.49;nan
28510;BME280;15723;55.684;37.928;2023-05-24T00:38:47;100034.63;;;20.51;nan
28510;BME280;15723;55.684;37.928;2023-05-24T00:41:15;100040.38;;;20.57;nan
28510;BME280;15723;55.684;37.928;2023-05-24T00:43:42;100038.88;;;20.10;nan
28510;BME280;15723;55.684;37.928;2023-05-24T00:46:21;100035.53;;;19.88;nan
28510;BME280;15723;55.684;37.928;2023-05-24T00:48:50;100033.94;;;20.04;nan
28510;BME280;15723;55.684;37.928;2023-05-24T00:51:17;100023.88;;;19.94;nan
28510;BME280;15723;55.684;37.928;2023-05-24T00:53:47;100028.06;;;20.34;nan
28510;BME280;15723;55.684;37.928;2023-05-24T00:56:15;100037.34;;;19.97;nan
28510;BME280;15723;55.684;37.928;2023-05-24T00:58:42;100031.16;;;20.13;nan
28510;BME280;15723;55.684;37.928;2023-05-24T01:01:10;100027.75;;;20.19;nan
28510;BME280;15723;55.684;37.928;2023-05-24T01:03:36;100016.31;;;19.96;nan
28510;BME280;15723;55.684;37.928;2023-05-24T01:06:05;100018.34;;;19.77;nan
28510;BME280;15723;55.684;37.928;2023-05-24T01:08:44;100006.16;;;19.52;nan
28510;BME280;15723;55.684;37.928;2023-05-24T01:17:05;100007.38;;;20.12;nan
28510;BME280;15723;55.684;37.928;2023-05-24T01:24:49;100011.84;;;19.95;nan
28510;BME280;15723;55.684;37.928;2023-05-24T01:27:21;100014.22;;;19.63;nan
28510;BME280;15723;55.684;37.928;2023-05-24T01:29:48;100013.41;;;19.80;nan
28510;BME280;15723;55.684;37.928;2023-05-24T01:32:19;100015.44;;;19.96;nan
28510;BME280;15723;55.684;37.928;2023-05-24T01:34:46;100008.75;;;19.81;nan
28510;BME280;15723;55.684;37.928;2023-05-24T01:37:15;100011.06;;;19.58;nan
28510;BME280;15723;55.684;37.928;2023-05-24T01:39:41;100008.09;;;19.69;nan
28510;BME280;15723;55.684;37.928;2023-05-24T01:45:04;100014.66;;;19.31;nan
28510;BME280;15723;55.684;37.928;2023-05-24T01:48:01;100007.56;;;19.28;nan
28510;BME280;15723;55.684;37.928;2023-05-24T01:50:45;100014.13;;;19.55;nan
28510;BME280;15723;55.684;37.928;2023-05-24T01:53:15;100009.66;;;19.17;nan
28510;BME280;15723;55.684;37.928;2023-05-24T01:55:43;100002.69;;;19.50;nan
28510;BME280;15723;55.684;37.928;2023-05-24T01:58:15;100018.56;;;19.28;nan
28510;BME280;15723;55.684;37.928;2023-05-24T02:00:43;100017.69;;;19.28;nan
28510;BME280;15723;55.684;37.928;2023-05-24T02:03:13;100005.94;;;19.73;nan
28510;BME280;15723;55.684;37.928;2023-05-24T02:05:39;100001.69;;;19.96;nan
28510;BME280;15723;55.684;37.928;2023-05-24T02:08:05;100002.16;;;20.27;nan
28510;BME280;15723;55.684;37.928;2023-05-24T02:10:31;99998.75;;;20.33;nan
28510;BME280;15723;55.684;37.928;2023-05-24T02:12:58;100004.75;;;20.64;nan
28510;BME280;15723;55.684;37.928;2023-05-24T02:15:25;99995.50;;;20.47;nan
28510;BME280;15723;55.684;37.928;2023-05-24T02:17:57;99997.75;;;20.78;nan
28510;BME280;15723;55.684;37.928;2023-05-24T02:20:46;99994.03;;;20.61;nan
28510;BME280;15723;55.684;37.928;2023-05-24T02:23:14;99990.47;;;20.69;nan
28510;BME280;15723;55.684;37.928;2023-05-24T02:25:41;99991.75;;;20.56;nan
28510;BME280;15723;55.684;37.928;2023-05-24T02:28:07;99992.03;;;20.10;nan
28510;BME280;15723;55.684;37.928;2023-05-24T02:30:33;99990.69;;;20.49;nan
28510;BME280;15723;55.684;37.928;2023-05-24T02:32:59;99991.22;;;19.99;nan
28510;BME280;15723;55.684;37.928;2023-05-24T02:35:26;99994.06;;;19.62;nan
28510;BME280;15723;55.684;37.928;2023-05-24T02:37:53;99988.41;;;20.45;nan
28510;BME280;15723;55.684;37.928;2023-05-24T02:40:19;99988.25;;;20.11;nan
28510;BME280;15723;55.684;37.928;2023-05-24T02:42:45;99985.47;;;19.48;nan
28510;BME280;15723;55.684;37.928;2023-05-24T02:45:11;99981.75;;;19.39;nan
28510;BME280;15723;55.684;37.928;2023-05-24T02:47:37;99978.78;;;19.95;nan
28510;BME280;15723;55.684;37.928;2023-05-24T02:50:04;99978.78;;;19.23;nan
28510;BME280;15723;55.684;37.928;2023-05-24T02:52:31;99980.81;;;19.93;nan
28510;BME280;15723;55.684;37.928;2023-05-24T02:54:58;99977.38;;;20.09;nan
28510;BME280;15723;55.684;37.928;2023-05-24T02:57:25;99980.19;;;20.17;nan
28510;BME280;15723;55.684;37.928;2023-05-24T02:59:53;99982.31;;;19.70;nan
28510;BME280;15723;55.684;37.928;2023-05-24T03:02:21;99982.88;;;20.27;nan
28510;BME280;15723;55.684;37.928;2023-05-24T03:04:47;99979.16;;;20.36;nan
28510;BME280;15723;55.684;37.928;2023-05-24T03:07:13;99971.22;;;21.37;nan
28510;BME280;15723;55.684;37.928;2023-05-24T03:09:39;99968.19;;;21.56;nan
28510;BME280;15723;55.684;37.928;2023-05-24T03:12:06;99967.97;;;21.49;nan
28510;BME280;15723;55.684;37.928;2023-05-24T03:14:33;99960.72;;;22.72;nan
28510;BME280;15723;55.684;37.928;2023-05-24T03:16:59;99961.50;;;21.67;nan
28510;BME280;15723;55.684;37.928;2023-05-24T03:19:26;99970.59;;;22.18;nan
28510;BME280;15723;55.684;37.928;2023-05-24T03:21:52;99968.06;;;21.74;nan
28510;BME280;15723;55.684;37.928;2023-05-24T03:24:18;99967.41;;;23.10;nan
28510;BME280;15723;55.684;37.928;2023-05-24T03:26:45;99956.84;;;25.64;nan
28510;BME280;15723;55.684;37.928;2023-05-24T03:29:12;99953.44;;;25.98;nan
28510;BME280;15723;55.684;37.928;2023-05-24T03:31:41;99944.22;;;28.06;nan
28510;BME280;15723;55.684;37.928;2023-05-24T03:34:08;99948.72;;;29.52;nan
28510;BME280;15723;55.684;37.928;2023-05-24T03:36:35;99946.94;;;27.80;nan
28510;BME280;15723;55.684;37.928;2023-05-24T03:39:02;99944.63;;;27.96;nan
28510;BME280;15723;55.684;37.928;2023-05-24T03:41:35;99946.72;;;26.50;nan
28510;BME280;15723;55.684;37.928;2023-05-24T03:44:01;99951.56;;;26.41;nan
28510;BME280;15723;55.684;37.928;2023-05-24T03:46:29;99948.38;;;23.85;nan
28510;BME280;15723;55.684;37.928;2023-05-24T03:48:55;99939.38;;;25.04;nan
28510;BME280;15723;55.684;37.928;2023-05-24T03:51:21;99941.75;;;24.92;nan
28510;BME280;15723;55.684;37.928;2023-05-24T03:53:57;99938.03;;;24.02;nan
28510;BME280;15723;55.684;37.928;2023-05-24T03:56:25;99933.09;;;24.87;nan
28510;BME280;15723;55.684;37.928;2023-05-24T03:58:52;99944.88;;;23.21;nan
28510;BME280;15723;55.684;37.928;2023-05-24T04:01:19;99938.91;;;23.80;nan
28510;BME280;15723;55.684;37.928;2023-05-24T04:03:46;99945.13;;;23.34;nan
28510;BME280;15723;55.684;37.928;2023-05-24T04:06:12;99936.38;;;23.93;nan
28510;BME280;15723;55.684;37.928;2023-05-24T04:08:39;99933.25;;;25.23;nan
28510;BME280;15723;55.684;37.928;2023-05-24T04:11:05;99922.31;;;26.30;nan
28510;BME280;15723;55.684;37.928;2023-05-24T04:13:31;99930.66;;;24.92;nan
28510;BME280;15723;55.684;37.928;2023-05-24T04:15:58;99920.47;;;27.15;nan
28510;BME280;15723;55.684;37.928;2023-05-24T04:18:24;99924.97;;;28.84;nan
28510;BME280;15723;55.684;37.928;2023-05-24T04:20:51;99923.44;;;29.21;nan
28510;BME280;15723;55.684;37.928;2023-05-24T04:23:19;99919.84;;;28.35;nan
28510;BME280;15723;55.684;37.928;2023-05-24T04:25:45;99923.66;;;29.13;nan
28510;BME280;15723;55.684;37.928;2023-05-24T04:28:12;99921.47;;;31.97;nan
28510;BME280;15723;55.684;37.928;2023-05-24T04:30:40;99920.91;;;32.48;nan
28510;BME280;15723;55.684;37.928;2023-05-24T04:33:06;99918.06;;;31.77;nan
28510;BME280;15723;55.684;37.928;2023-05-24T04:35:33;99908.69;;;32.13;nan
28510;BME280;15723;55.684;37.928;2023-05-24T04:38:01;99923.50;;;32.73;nan
28510;BME280;15723;55.684;37.928;2023-05-24T04:40:27;99919.16;;;31.39;nan
28510;BME280;15723;55.684;37.928;2023-05-24T04:42:54;99916.50;;;32.41;nan
28510;BME280;15723;55.684;37.928;2023-05-24T04:45:21;99914.97;;;32.26;nan
28510;BME280;15723;55.684;37.928;2023-05-24T04:47:49;99924.22;;;30.62;nan
28510;BME280;15723;55.684;37.928;2023-05-24T04:50:23;99930.75;;;31.79;nan
28510;BME280;15723;55.684;37.928;2023-05-24T04:52:51;99930.31;;;33.82;nan
28510;BME280;15723;55.684;37.928;2023-05-24T04:55:17;99933.97;;;33.71;nan
28510;BME280;15723;55.684;37.928;2023-05-24T04:57:43;99929.06;;;35.14;nan
28510;BME280;15723;55.684;37.928;2023-05-24T05:00:10;99927.94;;;34.82;nan
28510;BME280;15723;55.684;37.928;2023-05-24T05:02:37;99923.56;;;36.07;nan
28510;BME280;15723;55.684;37.928;2023-05-24T05:05:05;99930.31;;;35.40;nan
28510;BME280;15723;55.684;37.928;2023-05-24T05:07:32;99931.13;;;34.23;nan
28510;BME280;15723;55.684;37.928;2023-05-24T05:09:58;99934.00;;;32.24;nan
28510;BME280;15723;55.684;37.928;2023-05-24T05:12:25;99946.28;;;30.45;nan
28510;BME280;15723;55.684;37.928;2023-05-24T05:14:58;99946.84;;;29.26;nan
28510;BME280;15723;55.684;37.928;2023-05-24T05:17:25;99957.13;;;27.59;nan
28510;BME280;15723;55.684;37.928;2023-05-24T05:19:51;99963.94;;;26.60;nan
28510;BME280;15723;55.684;37.928;2023-05-24T05:22:17;99959.44;;;26.59;nan
28510;BME280;15723;55.684;37.928;2023-05-24T05:24:43;99951.38;;;26.42;nan
28510;BME280;15723;55.684;37.928;2023-05-24T05:27:09;99956.50;;;26.03;nan
28510;BME280;15723;55.684;37.928;2023-05-24T05:29:36;99951.63;;;25.69;nan
28510;BME280;15723;55.684;37.928;2023-05-24T05:32:02;99954.97;;;25.49;nan
28510;BME280;15723;55.684;37.928;2023-05-24T05:34:28;99962.25;;;24.91;nan
28510;BME280;15723;55.684;37.928;2023-05-24T05:36:54;99955.94;;;25.27;nan
28510;BME280;15723;55.684;37.928;2023-05-24T05:39:21;99962.00;;;24.78;nan
28510;BME280;15723;55.684;37.928;2023-05-24T05:41:47;99962.38;;;24.75;nan
28510;BME280;15723;55.684;37.928;2023-05-24T05:44:13;99973.59;;;24.82;nan
28510;BME280;15723;55.684;37.928;2023-05-24T05:46:39;99961.84;;;24.94;nan
28510;BME280;15723;55.684;37.928;2023-05-24T05:49:08;99964.13;;;24.76;nan
28510;BME280;15723;55.684;37.928;2023-05-24T05:51:35;99971.69;;;24.82;nan
28510;BME280;15723;55.684;37.928;2023-05-24T05:54:04;99969.38;;;24.71;nan
28510;BME280;15723;55.684;37.928;2023-05-24T05:56:30;99975.69;;;24.65;nan
28510;BME280;15723;55.684;37.928;2023-05-24T05:58:56;99969.28;;;24.79;nan
28510;BME280;15723;55.684;37.928;2023-05-24T06:01:23;99970.44;;;24.47;nan
28510;BME280;15723;55.684;37.928;2023-05-24T06:03:50;99961.69;;;25.11;nan
28510;BME280;15723;55.684;37.928;2023-05-24T06:06:16;99965.25;;;25.05;nan
28510;BME280;15723;55.684;37.928;2023-05-24T06:08:43;99957.03;;;24.88;nan
28510;BME280;15723;55.684;37.928;2023-05-24T06:11:09;99955.25;;;24.96;nan
28510;BME280;15723;55.684;37.928;2023-05-24T06:13:36;99946.97;;;24.58;nan
28510;BME280;15723;55.684;37.928;2023-05-24T06:16:02;99946.06;;;24.95;nan
28510;BME280;15723;55.684;37.928;2023-05-24T06:18:28;99948.91;;;24.72;nan
28510;BME280;15723;55.684;37.928;2023-05-24T06:20:57;99931.13;;;25.40;nan
28510;BME280;15723;55.684;37.928;2023-05-24T06:23:23;99944.34;;;25.89;nan
28510;BME280;15723;55.684;37.928;2023-05-24T06:25:49;99936.03;;;25.09;nan
28510;BME280;15723;55.684;37.928;2023-05-24T06:28:15;99930.53;;;25.96;nan
28510;BME280;15723;55.684;37.928;2023-05-24T06:30:42;99930.47;;;25.38;nan
28510;BME280;15723;55.684;37.928;2023-05-24T06:33:09;99933.25;;;25.89;nan
28510;BME280;15723;55.684;37.928;2023-05-24T06:35:35;99928.75;;;25.88;nan
28510;BME280;15723;55.684;37.928;2023-05-24T06:38:01;99929.97;;;25.49;nan
28510;BME280;15723;55.684;37.928;2023-05-24T06:40:27;99926.34;;;25.85;nan
28510;BME280;15723;55.684;37.928;2023-05-24T06:42:53;99924.28;;;25.72;nan
28510;BME280;15723;55.684;37.928;2023-05-24T06:45:20;99918.03;;;26.06;nan
28510;BME280;15723;55.684;37.928;2023-05-24T06:47:48;99915.69;;;26.53;nan
28510;BME280;15723;55.684;37.928;2023-05-24T06:50:14;99922.28;;;26.45;nan
28510;BME280;15723;55.684;37.928;2023-05-24T06:52:41;99922.28;;;26.45;nan
28510;BME280;15723;55.684;37.928;2023-05-24T06:55:08;99920.34;;;26.24;nan
28510;BME280;15723;55.684;37.928;2023-05-24T06:57:34;99924.09;;;26.59;nan
28510;BME280;15723;55.684;37.928;2023-05-24T07:00:00;99916.38;;;26.12;nan
28510;BME280;15723;55.684;37.928;2023-05-24T07:02:31;99922.31;;;26.30;nan
28510;BME280;15723;55.684;37.928;2023-05-24T07:04:57;99923.91;;;26.18;nan
28510;BME280;15723;55.684;37.928;2023-05-24T07:07:24;99921.19;;;26.25;nan
28510;BME280;15723;55.684;37.928;2023-05-24T07:09:50;99924.31;;;26.36;nan
28510;BME280;15723;55.684;37.928;2023-05-24T07:12:16;99918.34;;;26.18;nan
28510;BME280;15723;55.684;37.928;2023-05-24T07:14:46;99922.63;;;25.99;nan
28510;BME280;15723;55.684;37.928;2023-05-24T07:17:12;99923.03;;;25.60;nan
28510;BME280;15723;55.684;37.928;2023-05-24T07:19:38;99917.41;;;26.32;nan
28510;BME280;15723;55.684;37.928;2023-05-24T07:22:05;99912.41;;;26.70;nan
28510;BME280;15723;55.684;37.928;2023-05-24T07:24:32;99906.94;;;27.59;nan
28510;BME280;15723;55.684;37.928;2023-05-24T07:26:58;99913.41;;;28.41;nan
28510;BME280;15723;55.684;37.928;2023-05-24T07:29:24;99923.72;;;27.25;nan
28510;BME280;15723;55.684;37.928;2023-05-24T07:31:51;99918.41;;;27.78;nan
28510;BME280;15723;55.684;37.928;2023-05-24T07:34:18;99922.34;;;28.16;nan
28510;BME280;15723;55.684;37.928;2023-05-24T07:36:46;99918.81;;;27.68;nan
28510;BME280;15723;55.684;37.928;2023-05-24T07:39:13;99915.97;;;27.14;nan
28510;BME280;15723;55.684;37.928;2023-05-24T07:41:41;99918.56;;;26.94;nan
28510;BME280;15723;55.684;37.928;2023-05-24T07:44:07;99920.97;;;26.41;nan
28510;BME280;15723;55.684;37.928;2023-05-24T07:46:33;99917.25;;;26.34;nan
28510;BME280;15723;55.684;37.928;2023-05-24T07:49:00;99919.19;;;26.89;nan
28510;BME280;15723;55.684;37.928;2023-05-24T07:51:26;99931.13;;;26.55;nan
28510;BME280;15723;55.684;37.928;2023-05-24T07:53:53;99930.28;;;27.10;nan
28510;BME280;15723;55.684;37.928;2023-05-24T07:56:19;99924.00;;;27.43;nan
28510;BME280;15723;55.684;37.928;2023-05-24T07:58:46;99925.56;;;27.11;nan
28510;BME280;15723;55.684;37.928;2023-05-24T08:01:14;99927.97;;;26.86;nan
28510;BME280;15723;55.684;37.928;2023-05-24T08:03:40;99923.44;;;26.85;nan
28510;BME280;15723;55.684;37.928;2023-05-24T08:06:06;99922.44;;;27.27;nan
28510;BME280;15723;55.684;37.928;2023-05-24T08:08:32;99926.19;;;27.06;nan
28510;BME280;15723;55.684;37.928;2023-05-24T08:10:59;99913.94;;;27.42;nan
28510;BME280;15723;55.684;37.928;2023-05-24T08:13:25;99928.59;;;27.57;nan
28510;BME280;15723;55.684;37.928;2023-05-24T08:15:52;99923.47;;;27.61;nan
28510;BME280;15723;55.684;37.928;2023-05-24T08:18:18;99924.25;;;27.48;nan
28510;BME280;15723;55.684;37.928;2023-05-24T08:20:44;99927.47;;;28.06;nan
28510;BME280;15723;55.684;37.928;2023-05-24T08:23:10;99925.00;;;28.44;nan
28510;BME280;15723;55.684;37.928;2023-05-24T08:25:40;99922.53;;;27.95;nan
28510;BME280;15723;55.684;37.928;2023-05-24T08:28:06;99922.38;;;27.55;nan
28510;BME280;15723;55.684;37.928;2023-05-24T08:30:33;99929.50;;;28.58;nan
28510;BME280;15723;55.684;37.928;2023-05-24T08:32:59;99920.47;;;28.37;nan
28510;BME280;15723;55.684;37.928;2023-05-24T08:35:26;99922.75;;;28.07;nan
28510;BME280;15723;55.684;37.928;2023-05-24T08:37:52;99919.84;;;28.74;nan
28510;BME280;15723;55.684;37.928;2023-05-24T08:40:18;99927.59;;;27.71;nan
28510;BME280;15723;55.684;37.928;2023-05-24T08:42:46;99929.06;;;28.88;nan
28510;BME280;15723;55.684;37.928;2023-05-24T08:45:14;99924.78;;;28.39;nan
28510;BME280;15723;55.684;37.928;2023-05-24T08:47:42;99924.97;;;28.51;nan
28510;BME280;15723;55.684;37.928;2023-05-24T08:50:09;99922.78;;;28.13;nan
28510;BME280;15723;55.684;37.928;2023-05-24T08:52:36;99928.84;;;28.96;nan
28510;BME280;15723;55.684;37.928;2023-05-24T08:55:04;99912.09;;;29.03;nan
28510;BME280;15723;55.684;37.928;2023-05-24T08:57:31;99916.59;;;28.51;nan
28510;BME280;15723;55.684;37.928;2023-05-24T08:59:59;99923.59;;;29.33;nan
28510;BME280;15723;55.684;37.928;2023-05-24T09:02:26;99932.16;;;29.58;nan
28510;BME280;15723;55.684;37.928;2023-05-24T09:04:53;99931.84;;;28.81;nan
28510;BME280;15723;55.684;37.928;2023-05-24T09:07:21;99915.69;;;29.16;nan
28510;BME280;15723;55.684;37.928;2023-05-24T09:10:01;99917.44;;;29.75;nan
28510;BME280;15723;55.684;37.928;2023-05-24T09:12:31;99910.63;;;30.03;nan
28510;BME280;15723;55.684;37.928;2023-05-24T09:14:58;99913.53;;;30.21;nan
28510;BME280;15723;55.684;37.928;2023-05-24T09:17:25;99917.31;;;29.95;nan
28510;BME280;15723;55.684;37.928;2023-05-24T09:19:52;99916.16;;;30.16;nan
28510;BME280;15723;55.684;37.928;2023-05-24T09:22:18;99918.16;;;29.58;nan
28510;BME280;15723;55.684;37.928;2023-05-24T09:25:00;99926.25;;;29.08;nan
28510;BME280;15723;55.684;37.928;2023-05-24T09:27:34;99921.34;;;28.90;nan
28510;BME280;15723;55.684;37.928;2023-05-24T09:30:02;99918.03;;;28.14;nan
28510;BME280;15723;55.684;37.928;2023-05-24T09:32:32;99920.47;;;28.83;nan
28510;BME280;15723;55.684;37.928;2023-05-24T09:34:59;99918.81;;;29.60;nan
28510;BME280;15723;55.684;37.928;2023-05-24T09:37:26;99919.94;;;29.90;nan
28510;BME280;15723;55.684;37.928;2023-05-24T09:39:54;99923.38;;;29.41;nan
28510;BME280;15723;55.684;37.928;2023-05-24T09:42:23;99916.13;;;29.20;nan
28510;BME280;15723;55.684;37.928;2023-05-24T09:45:01;99912.63;;;29.44;nan
28510;BME280;15723;55.684;37.928;2023-05-24T09:47:32;99916.59;;;28.90;nan
28510;BME280;15723;55.684;37.928;2023-05-24T09:50:04;99910.34;;;29.73;nan
28510;BME280;15723;55.684;37.928;2023-05-24T09:52:36;99920.41;;;29.22;nan
28510;BME280;15723;55.684;37.928;2023-05-24T09:55:19;99918.97;;;28.87;nan
28510;BME280;15723;55.684;37.928;2023-05-24T09:57:59;99923.19;;;29.29;nan
28510;BME280;15723;55.684;37.928;2023-05-24T10:00:28;99927.75;;;29.17;nan
28510;BME280;15723;55.684;37.928;2023-05-24T10:03:03;99921.31;;;28.97;nan
28510;BME280;15723;55.684;37.928;2023-05-24T10:05:32;99922.16;;;29.17;nan
28510;BME280;15723;55.684;37.928;2023-05-24T10:08:00;99924.31;;;29.08;nan
28510;BME280;15723;55.684;37.928;2023-05-24T10:10:29;99930.03;;;29.46;nan
28510;BME280;15723;55.684;37.928;2023-05-24T10:12:56;99932.06;;;29.13;nan
28510;BME280;15723;55.684;37.928;2023-05-24T10:15:23;99933.28;;;28.18;nan
28510;BME280;15723;55.684;37.928;2023-05-24T10:17:51;99934.88;;;28.93;nan
28510;BME280;15723;55.684;37.928;2023-05-24T10:20:18;99943.25;;;28.86;nan
28510;BME280;15723;55.684;37.928;2023-05-24T10:22:46;99930.13;;;28.47;nan
28510;BME280;15723;55.684;37.928;2023-05-24T10:25:16;99941.00;;;28.02;nan
28510;BME280;15723;55.684;37.928;2023-05-24T10:27:48;99934.38;;;29.22;nan
28510;BME280;15723;55.684;37.928;2023-05-24T10:30:25;99940.19;;;29.21;nan
28510;BME280;15723;55.684;37.928;2023-05-24T10:32:55;99946.91;;;29.00;nan
28510;BME280;15723;55.684;37.928;2023-05-24T10:35:22;99939.78;;;29.11;nan
28510;BME280;15723;55.684;37.928;2023-05-24T10:37:49;99945.81;;;28.61;nan
28510;BME280;15723;55.684;37.928;2023-05-24T10:40:20;99946.00;;;29.19;nan
28510;BME280;15723;55.684;37.928;2023-05-24T10:42:47;99943.59;;;29.43;nan
28510;BME280;15723;55.684;37.928;2023-05-24T10:45:35;99938.94;;;28.57;nan
28510;BME280;15723;55.684;37.928;2023-05-24T10:50:40;99942.72;;;29.36;nan
28510;BME280;15723;55.684;37.928;2023-05-24T10:53:14;99949.00;;;29.24;nan
28510;BME280;15723;55.684;37.928;2023-05-24T10:55:52;99953.56;;;28.79;nan
28510;BME280;15723;55.684;37.928;2023-05-24T10:58:19;99947.09;;;28.32;nan
28510;BME280;15723;55.684;37.928;2023-05-24T11:00:45;99955.06;;;28.82;nan
28510;BME280;15723;55.684;37.928;2023-05-24T11:03:13;99951.84;;;28.78;nan
28510;BME280;15723;55.684;37.928;2023-05-24T11:05:50;99954.19;;;28.61;nan
28510;BME280;15723;55.684;37.928;2023-05-24T11:08:31;99954.19;;;28.75;nan
28510;BME280;15723;55.684;37.928;2023-05-24T11:11:13;99952.91;;;28.57;nan
28510;BME280;15723;55.684;37.928;2023-05-24T11:13:46;99956.34;;;28.33;nan
28510;BME280;15723;55.684;37.928;2023-05-24T11:16:33;99953.88;;;27.97;nan
28510;BME280;15723;55.684;37.928;2023-05-24T11:19:34;99955.91;;;27.68;nan
28510;BME280;15723;55.684;37.928;2023-05-24T11:22:05;99952.13;;;27.89;nan
28510;BME280;15723;55.684;37.928;2023-05-24T11:24:32;99959.22;;;27.98;nan
28510;BME280;15723;55.684;37.928;2023-05-24T11:27:00;99970.75;;;27.82;nan
28510;BME280;15723;55.684;37.928;2023-05-24T11:29:30;99957.50;;;27.97;nan
28510;BME280;15723;55.684;37.928;2023-05-24T11:31:58;99967.28;;;27.74;nan
28510;BME280;15723;55.684;37.928;2023-05-24T11:34:29;99962.66;;;28.00;nan
28510;BME280;15723;55.684;37.928;2023-05-24T11:37:00;99960.63;;;28.36;nan
28510;BME280;15723;55.684;37.928;2023-05-24T11:39:32;99964.50;;;28.48;nan
28510;BME280;15723;55.684;37.928;2023-05-24T11:41:58;99963.94;;;27.98;nan
28510;BME280;15723;55.684;37.928;2023-05-24T11:44:29;99961.81;;;28.07;nan
28510;BME280;15723;55.684;37.928;2023-05-24T11:46:57;99973.44;;;28.23;nan
28510;BME280;15723;55.684;37.928;2023-05-24T11:49:24;99968.00;;;27.89;nan
28510;BME280;15723;55.684;37.928;2023-05-24T11:51:54;99969.53;;;28.05;nan
28510;BME280;15723;55.684;37.928;2023-05-24T11:54:22;99969.63;;;27.63;nan
28510;BME280;15723;55.684;37.928;2023-05-24T11:56:51;99973.00;;;27.59;nan
28510;BME280;15723;55.684;37.928;2023-05-24T11:59:22;99976.53;;;27.39;nan
28510;BME280;15723;55.684;37.928;2023-05-24T12:02:05;99980.50;;;26.96;nan
28510;BME280;15723;55.684;37.928;2023-05-24T12:04:32;99970.53;;;27.42;nan
28510;BME280;15723;55.684;37.928;2023-05-24T12:07:02;99973.66;;;27.61;nan
28510;BME280;15723;55.684;37.928;2023-05-24T12:09:30;99969.00;;;27.68;nan
28510;BME280;15723;55.684;37.928;2023-05-24T12:11:57;99963.03;;;27.84;nan
28510;BME280;15723;55.684;37.928;2023-05-24T12:14:32;99970.41;;;27.98;nan
28510;BME280;15723;55.684;37.928;2023-05-24T12:16:59;99963.88;;;27.78;nan
28510;BME280;15723;55.684;37.928;2023-05-24T12:19:30;99960.03;;;27.45;nan
28510;BME280;15723;55.684;37.928;2023-05-24T12:22:03;99958.44;;;28.24;nan
28510;BME280;15723;55.684;37.928;2023-05-24T12:24:31;99952.19;;;28.22;nan
28510;BME280;15723;55.684;37.928;2023-05-24T12:27:02;99967.03;;;27.27;nan
28510;BME280;15723;55.684;37.928;2023-05-24T12:29:35;99954.47;;;27.45;nan
28510;BME280;15723;55.684;37.928;2023-05-24T12:32:03;99961.38;;;26.86;nan
28510;BME280;15723;55.684;37.928;2023-05-24T12:34:29;99951.09;;;28.03;nan
28510;BME280;15723;55.684;37.928;2023-05-24T12:36:55;99949.81;;;28.13;nan
28510;BME280;15723;55.684;37.928;2023-05-24T12:39:24;99952.69;;;28.32;nan
28510;BME280;15723;55.684;37.928;2023-05-24T12:42:01;99949.69;;;28.54;nan
28510;BME280;15723;55.684;37.928;2023-05-24T12:44:34;99943.59;;;28.17;nan
28510;BME280;15723;55.684;37.928;2023-05-24T12:47:03;99947.97;;;28.46;nan
28510;BME280;15723;55.684;37.928;2023-05-24T12:49:30;99944.53;;;28.71;nan
28510;BME280;15723;55.684;37.928;2023-05-24T12:51:57;99940.44;;;28.47;nan
28510;BME280;15723;55.684;37.928;2023-05-24T12:54:25;99935.06;;;28.98;nan
28510;BME280;15723;55.684;37.928;2023-05-24T12:56:55;99941.06;;;29.21;nan
28510;BME280;15723;55.684;37.928;2023-05-24T12:59:22;99930.94;;;29.20;nan
28510;BME280;15723;55.684;37.928;2023-05-24T13:01:48;99929.50;;;28.91;nan
28510;BME280;15723;55.684;37.928;2023-05-24T13:04:19;99935.00;;;29.31;nan
28510;BME280;15723;55.684;37.928;2023-05-24T13:06:46;99928.84;;;28.96;nan
28510;BME280;15723;55.684;37.928;2023-05-24T13:09:13;99947.75;;;28.81;nan
28510;BME280;15723;55.684;37.928;2023-05-24T13:11:40;99943.03;;;29.01;nan
28510;BME280;15723;55.684;37.928;2023-05-24T13:14:07;99952.38;;;29.53;nan
28510;BME280;15723;55.684;37.928;2023-05-24T13:16:33;99957.63;;;28.97;nan
28510;BME280;15723;55.684;37.928;2023-05-24T13:19:00;99946.69;;;28.62;nan
28510;BME280;15723;55.684;37.928;2023-05-24T13:21:29;99958.84;;;28.21;nan
28510;BME280;15723;55.684;37.928;2023-05-24T13:23:55;99960.66;;;28.62;nan
28510;BME280;15723;55.684;37.928;2023-05-24T13:26:23;99960.44;;;29.10;nan
28510;BME280;15723;55.684;37.928;2023-05-24T13:28:49;99961.94;;;28.73;nan
28510;BME280;15723;55.684;37.928;2023-05-24T13:31:15;99963.25;;;28.63;nan
28510;BME280;15723;55.684;37.928;2023-05-24T13:33:41;99952.91;;;28.38;nan